sensor_id;sensor_type;location;lat;lon;timestamp;P1;durP1;ratioP1;P2;durP2;ratioP2
53525;SDS011;40551;50.478;19.378;2023-09-08T00:00:34;13.00;;;11.30;;
53525;SDS011;40551;50.478;19.378;2023-09-08T00:05:56;16.10;;;10.40;;
53525;SDS011;40551;50.478;19.378;2023-09-08T00:08:28;11.90;;;10.20;;
53525;SDS011;40551;50.478;19.378;2023-09-08T00:11:00;14.60;;;10.60;;
53525;SDS011;40551;50.478;19.378;2023-09-08T00:13:31;11.80;;;10.30;;
53525;SDS011;40551;50.478;19.378;2023-09-08T00:16:05;13.60;;;10.80;;
53525;SDS011;40551;50.478;19.378;2023-09-08T00:18:39;12.60;;;10.60;;
53525;SDS011;40551;50.478;19.378;2023-09-08T00:21:10;11.80;;;10.20;;
53525;SDS011;40551;50.478;19.378;2023-09-08T00:26:12;12.90;;;9.70;;
53525;SDS011;40551;50.478;19.378;2023-09-08T00:28:44;13.20;;;10.10;;
53525;SDS011;40551;50.478;19.378;2023-09-08T00:31:17;14.70;;;10.00;;
53525;SDS011;40551;50.478;19.378;2023-09-08T00:36:18;13.30;;;9.70;;
53525;SDS011;40551;50.478;19.378;2023-09-08T00:41:20;13.60;;;9.60;;
53525;SDS011;40551;50.478;19.378;2023-09-08T00:43:52;13.60;;;9.60;;
53525;SDS011;40551;50.478;19.378;2023-09-08T00:46:25;13.30;;;10.20;;
53525;SDS011;40551;50.478;19.378;2023-09-08T00:48:57;12.40;;;10.60;;
53525;SDS011;40551;50.478;19.378;2023-09-08T00:53:59;11.80;;;10.40;;
53525;SDS011;40551;50.478;19.378;2023-09-08T00:56:31;13.30;;;10.50;;
53525;SDS011;40551;50.478;19.378;2023-09-08T00:59:03;13.10;;;10.10;;
53525;SDS011;40551;50.478;19.378;2023-09-08T01:01:35;11.90;;;10.20;;
53525;SDS011;40551;50.478;19.378;2023-09-08T01:04:09;15.90;;;10.60;;
53525;SDS011;40551;50.478;19.378;2023-09-08T01:06:40;12.90;;;10.20;;
53525;SDS011;40551;50.478;19.378;2023-09-08T01:09:13;11.70;;;10.20;;
53525;SDS011;40551;50.478;19.378;2023-09-08T01:11:45;12.50;;;11.10;;
53525;SDS011;40551;50.478;19.378;2023-09-08T01:14:18;12.40;;;10.80;;
53525;SDS011;40551;50.478;19.378;2023-09-08T01:16:50;16.80;;;10.70;;
53525;SDS011;40551;50.478;19.378;2023-09-08T01:19:22;13.50;;;11.10;;
53525;SDS011;40551;50.478;19.378;2023-09-08T01:22:03;13.60;;;10.90;;
53525;SDS011;40551;50.478;19.378;2023-09-08T01:25:00;15.00;;;10.40;;
53525;SDS011;40551;50.478;19.378;2023-09-08T01:27:37;12.60;;;11.20;;
53525;SDS011;40551;50.478;19.378;2023-09-08T01:30:15;13.30;;;11.90;;
53525;SDS011;40551;50.478;19.378;2023-09-08T01:32:47;15.00;;;10.50;;
53525;SDS011;40551;50.478;19.378;2023-09-08T01:35:20;13.70;;;11.30;;
53525;SDS011;40551;50.478;19.378;2023-09-08T01:37:53;13.10;;;10.40;;
53525;SDS011;40551;50.478;19.378;2023-09-08T01:40:25;12.20;;;10.70;;
53525;SDS011;40551;50.478;19.378;2023-09-08T01:42:57;11.60;;;10.30;;
53525;SDS011;40551;50.478;19.378;2023-09-08T01:45:28;11.70;;;10.30;;
53525;SDS011;40551;50.478;19.378;2023-09-08T01:48:00;11.50;;;9.50;;
53525;SDS011;40551;50.478;19.378;2023-09-08T01:50:33;14.50;;;11.00;;
53525;SDS011;40551;50.478;19.378;2023-09-08T01:53:04;13.10;;;11.10;;
53525;SDS011;40551;50.478;19.378;2023-09-08T01:55:36;12.20;;;10.90;;
53525;SDS011;40551;50.478;19.378;2023-09-08T01:58:08;14.40;;;11.10;;
53525;SDS011;40551;50.478;19.378;2023-09-08T02:00:39;15.00;;;12.40;;
53525;SDS011;40551;50.478;19.378;2023-09-08T02:03:11;13.30;;;11.90;;
53525;SDS011;40551;50.478;19.378;2023-09-08T02:05:44;13.30;;;11.80;;
53525;SDS011;40551;50.478;19.378;2023-09-08T02:08:16;14.20;;;12.70;;
53525;SDS011;40551;50.478;19.378;2023-09-08T02:10:48;16.50;;;12.70;;
53525;SDS011;40551;50.478;19.378;2023-09-08T02:13:19;17.90;;;13.90;;
53525;SDS011;40551;50.478;19.378;2023-09-08T02:15:51;15.70;;;13.70;;
53525;SDS011;40551;50.478;19.378;2023-09-08T02:18:23;14.70;;;13.20;;
53525;SDS011;40551;50.478;19.378;2023-09-08T02:20:55;15.00;;;13.40;;
53525;SDS011;40551;50.478;19.378;2023-09-08T02:23:27;13.70;;;12.30;;
53525;SDS011;40551;50.478;19.378;2023-09-08T02:28:30;13.60;;;11.80;;
53525;SDS011;40551;50.478;19.378;2023-09-08T02:31:02;12.30;;;11.00;;
53525;SDS011;40551;50.478;19.378;2023-09-08T02:33:34;13.80;;;11.00;;
53525;SDS011;40551;50.478;19.378;2023-09-08T02:36:06;13.50;;;11.10;;
53525;SDS011;40551;50.478;19.378;2023-09-08T02:38:39;14.40;;;11.80;;
53525;SDS011;40551;50.478;19.378;2023-09-08T02:41:11;13.40;;;12.00;;
53525;SDS011;40551;50.478;19.378;2023-09-08T02:43:42;13.90;;;12.40;;
53525;SDS011;40551;50.478;19.378;2023-09-08T02:46:14;13.90;;;12.50;;
53525;SDS011;40551;50.478;19.378;2023-09-08T02:48:46;13.00;;;11.60;;
53525;SDS011;40551;50.478;19.378;2023-09-08T02:51:18;12.80;;;11.40;;
53525;SDS011;40551;50.478;19.378;2023-09-08T02:53:50;16.00;;;13.10;;
53525;SDS011;40551;50.478;19.378;2023-09-08T02:56:22;15.90;;;12.30;;
53525;SDS011;40551;50.478;19.378;2023-09-08T02:58:54;14.10;;;12.80;;
53525;SDS011;40551;50.478;19.378;2023-09-08T03:01:26;13.30;;;11.80;;
53525;SDS011;40551;50.478;19.378;2023-09-08T03:03:58;13.10;;;11.70;;
53525;SDS011;40551;50.478;19.378;2023-09-08T03:06:32;14.30;;;12.60;;
53525;SDS011;40551;50.478;19.378;2023-09-08T03:09:05;15.90;;;12.60;;
53525;SDS011;40551;50.478;19.378;2023-09-08T03:11:37;13.50;;;11.90;;
53525;SDS011;40551;50.478;19.378;2023-09-08T03:14:09;15.00;;;13.30;;
53525;SDS011;40551;50.478;19.378;2023-09-08T03:16:41;14.40;;;12.90;;
53525;SDS011;40551;50.478;19.378;2023-09-08T03:19:13;14.30;;;12.80;;
53525;SDS011;40551;50.478;19.378;2023-09-08T03:21:46;14.10;;;12.60;;
53525;SDS011;40551;50.478;19.378;2023-09-08T03:24:18;14.60;;;13.10;;
53525;SDS011;40551;50.478;19.378;2023-09-08T03:26:49;14.20;;;12.70;;
53525;SDS011;40551;50.478;19.378;2023-09-08T03:29:23;14.40;;;12.90;;
53525;SDS011;40551;50.478;19.378;2023-09-08T03:31:54;14.20;;;12.50;;
53525;SDS011;40551;50.478;19.378;2023-09-08T03:34:26;14.70;;;12.90;;
53525;SDS011;40551;50.478;19.378;2023-09-08T03:36:58;15.20;;;12.80;;
53525;SDS011;40551;50.478;19.378;2023-09-08T03:39:30;14.60;;;12.90;;
53525;SDS011;40551;50.478;19.378;2023-09-08T03:42:02;16.40;;;13.70;;
53525;SDS011;40551;50.478;19.378;2023-09-08T03:44:35;13.90;;;12.40;;
53525;SDS011;40551;50.478;19.378;2023-09-08T03:47:07;14.00;;;12.50;;
53525;SDS011;40551;50.478;19.378;2023-09-08T03:49:39;14.90;;;12.20;;
53525;SDS011;40551;50.478;19.378;2023-09-08T03:52:10;13.70;;;12.10;;
53525;SDS011;40551;50.478;19.378;2023-09-08T03:54:42;13.90;;;11.30;;
53525;SDS011;40551;50.478;19.378;2023-09-08T03:57:15;18.40;;;11.50;;
53525;SDS011;40551;50.478;19.378;2023-09-08T03:59:47;14.20;;;12.50;;
53525;SDS011;40551;50.478;19.378;2023-09-08T04:02:18;13.60;;;12.20;;
53525;SDS011;40551;50.478;19.378;2023-09-08T04:04:50;18.20;;;12.80;;
53525;SDS011;40551;50.478;19.378;2023-09-08T04:07:22;14.70;;;13.20;;
53525;SDS011;40551;50.478;19.378;2023-09-08T04:09:54;13.80;;;12.20;;
53525;SDS011;40551;50.478;19.378;2023-09-08T04:12:25;14.00;;;12.50;;
53525;SDS011;40551;50.478;19.378;2023-09-08T04:14:57;13.10;;;11.70;;
53525;SDS011;40551;50.478;19.378;2023-09-08T04:17:29;13.50;;;11.80;;
53525;SDS011;40551;50.478;19.378;2023-09-08T04:20:01;13.70;;;12.10;;
53525;SDS011;40551;50.478;19.378;2023-09-08T04:22:34;17.10;;;11.20;;
53525;SDS011;40551;50.478;19.378;2023-09-08T04:27:36;14.50;;;10.80;;
53525;SDS011;40551;50.478;19.378;2023-09-08T04:30:10;12.60;;;11.00;;
53525;SDS011;40551;50.478;19.378;2023-09-08T04:32:43;13.80;;;11.00;;
53525;SDS011;40551;50.478;19.378;2023-09-08T04:35:15;20.50;;;12.20;;
53525;SDS011;40551;50.478;19.378;2023-09-08T04:37:47;13.70;;;11.70;;
53525;SDS011;40551;50.478;19.378;2023-09-08T04:40:19;14.40;;;11.20;;
53525;SDS011;40551;50.478;19.378;2023-09-08T04:42:50;15.50;;;11.30;;
53525;SDS011;40551;50.478;19.378;2023-09-08T04:45:24;15.70;;;10.80;;
53525;SDS011;40551;50.478;19.378;2023-09-08T04:47:56;12.60;;;10.60;;
53525;SDS011;40551;50.478;19.378;2023-09-08T04:50:28;13.00;;;10.90;;
53525;SDS011;40551;50.478;19.378;2023-09-08T04:52:59;14.10;;;11.80;;
53525;SDS011;40551;50.478;19.378;2023-09-08T04:55:31;12.70;;;11.10;;
53525;SDS011;40551;50.478;19.378;2023-09-08T04:58:05;14.10;;;11.50;;
53525;SDS011;40551;50.478;19.378;2023-09-08T05:00:38;12.80;;;10.70;;
53525;SDS011;40551;50.478;19.378;2023-09-08T05:03:10;14.40;;;11.10;;
53525;SDS011;40551;50.478;19.378;2023-09-08T05:05:42;13.60;;;10.70;;
53525;SDS011;40551;50.478;19.378;2023-09-08T05:08:15;11.10;;;10.00;;
53525;SDS011;40551;50.478;19.378;2023-09-08T05:10:47;13.40;;;10.30;;
53525;SDS011;40551;50.478;19.378;2023-09-08T05:13:19;12.80;;;11.00;;
53525;SDS011;40551;50.478;19.378;2023-09-08T05:16:01;13.30;;;10.30;;
53525;SDS011;40551;50.478;19.378;2023-09-08T05:18:52;15.40;;;10.00;;
53525;SDS011;40551;50.478;19.378;2023-09-08T05:21:24;12.20;;;10.70;;
53525;SDS011;40551;50.478;19.378;2023-09-08T05:23:56;12.10;;;10.50;;
53525;SDS011;40551;50.478;19.378;2023-09-08T05:26:28;12.30;;;10.10;;
53525;SDS011;40551;50.478;19.378;2023-09-08T05:29:00;12.30;;;10.00;;
53525;SDS011;40551;50.478;19.378;2023-09-08T05:31:32;12.90;;;10.40;;
53525;SDS011;40551;50.478;19.378;2023-09-08T05:34:03;11.70;;;9.90;;
53525;SDS011;40551;50.478;19.378;2023-09-08T05:36:36;13.50;;;11.30;;
53525;SDS011;40551;50.478;19.378;2023-09-08T05:39:09;14.10;;;10.70;;
53525;SDS011;40551;50.478;19.378;2023-09-08T05:41:43;12.50;;;10.10;;
53525;SDS011;40551;50.478;19.378;2023-09-08T05:44:15;11.90;;;10.20;;
53525;SDS011;40551;50.478;19.378;2023-09-08T05:46:47;13.60;;;10.90;;
53525;SDS011;40551;50.478;19.378;2023-09-08T05:49:19;12.50;;;10.30;;
53525;SDS011;40551;50.478;19.378;2023-09-08T05:51:51;11.90;;;10.30;;
53525;SDS011;40551;50.478;19.378;2023-09-08T05:54:23;13.20;;;9.90;;
53525;SDS011;40551;50.478;19.378;2023-09-08T05:56:55;12.40;;;10.30;;
53525;SDS011;40551;50.478;19.378;2023-09-08T05:59:27;12.10;;;10.20;;
53525;SDS011;40551;50.478;19.378;2023-09-08T06:01:59;11.80;;;9.30;;
53525;SDS011;40551;50.478;19.378;2023-09-08T06:04:31;12.30;;;9.60;;
53525;SDS011;40551;50.478;19.378;2023-09-08T06:07:03;11.20;;;9.80;;
53525;SDS011;40551;50.478;19.378;2023-09-08T06:09:35;11.30;;;10.10;;
53525;SDS011;40551;50.478;19.378;2023-09-08T06:12:07;12.40;;;10.40;;
53525;SDS011;40551;50.478;19.378;2023-09-08T06:14:39;11.60;;;10.40;;
53525;SDS011;40551;50.478;19.378;2023-09-08T06:17:13;11.30;;;9.60;;
53525;SDS011;40551;50.478;19.378;2023-09-08T06:19:45;14.30;;;9.60;;
53525;SDS011;40551;50.478;19.378;2023-09-08T06:22:16;11.80;;;10.00;;
53525;SDS011;40551;50.478;19.378;2023-09-08T06:24:48;13.00;;;9.30;;
53525;SDS011;40551;50.478;19.378;2023-09-08T06:27:20;12.90;;;10.20;;
53525;SDS011;40551;50.478;19.378;2023-09-08T06:29:52;12.70;;;10.50;;
53525;SDS011;40551;50.478;19.378;2023-09-08T06:32:26;14.00;;;11.10;;
53525;SDS011;40551;50.478;19.378;2023-09-08T06:34:58;15.90;;;10.30;;
53525;SDS011;40551;50.478;19.378;2023-09-08T06:37:33;15.30;;;10.50;;
53525;SDS011;40551;50.478;19.378;2023-09-08T06:40:07;17.60;;;12.00;;
53525;SDS011;40551;50.478;19.378;2023-09-08T06:42:39;15.80;;;11.50;;
53525;SDS011;40551;50.478;19.378;2023-09-08T06:45:17;14.20;;;11.00;;
53525;SDS011;40551;50.478;19.378;2023-09-08T06:47:49;14.70;;;10.90;;
53525;SDS011;40551;50.478;19.378;2023-09-08T06:50:25;15.10;;;11.40;;
53525;SDS011;40551;50.478;19.378;2023-09-08T06:52:59;18.70;;;11.10;;
53525;SDS011;40551;50.478;19.378;2023-09-08T06:55:31;15.40;;;11.80;;
53525;SDS011;40551;50.478;19.378;2023-09-08T06:58:03;16.10;;;11.00;;
53525;SDS011;40551;50.478;19.378;2023-09-08T07:00:35;15.10;;;11.00;;
53525;SDS011;40551;50.478;19.378;2023-09-08T07:03:07;14.50;;;10.30;;
53525;SDS011;40551;50.478;19.378;2023-09-08T07:05:40;11.90;;;9.90;;
53525;SDS011;40551;50.478;19.378;2023-09-08T07:08:12;13.00;;;9.70;;
53525;SDS011;40551;50.478;19.378;2023-09-08T07:10:44;11.90;;;8.90;;
53525;SDS011;40551;50.478;19.378;2023-09-08T07:13:22;14.80;;;9.90;;
53525;SDS011;40551;50.478;19.378;2023-09-08T07:15:53;11.40;;;9.30;;
53525;SDS011;40551;50.478;19.378;2023-09-08T07:18:25;13.40;;;9.20;;
53525;SDS011;40551;50.478;19.378;2023-09-08T07:20:57;19.40;;;8.80;;
53525;SDS011;40551;50.478;19.378;2023-09-08T07:23:29;14.50;;;9.40;;
53525;SDS011;40551;50.478;19.378;2023-09-08T07:26:01;11.50;;;8.70;;
53525;SDS011;40551;50.478;19.378;2023-09-08T07:28:33;12.70;;;8.10;;
53525;SDS011;40551;50.478;19.378;2023-09-08T07:31:07;12.20;;;8.50;;
53525;SDS011;40551;50.478;19.378;2023-09-08T07:33:41;14.00;;;7.90;;
53525;SDS011;40551;50.478;19.378;2023-09-08T07:36:13;11.00;;;8.00;;
53525;SDS011;40551;50.478;19.378;2023-09-08T07:38:46;11.80;;;7.90;;
53525;SDS011;40551;50.478;19.378;2023-09-08T07:41:18;10.00;;;7.80;;
53525;SDS011;40551;50.478;19.378;2023-09-08T07:43:50;13.40;;;7.40;;
53525;SDS011;40551;50.478;19.378;2023-09-08T07:46:24;12.90;;;7.50;;
53525;SDS011;40551;50.478;19.378;2023-09-08T07:48:57;11.90;;;7.40;;
53525;SDS011;40551;50.478;19.378;2023-09-08T07:51:30;11.70;;;7.50;;
53525;SDS011;40551;50.478;19.378;2023-09-08T07:54:01;13.40;;;8.70;;
53525;SDS011;40551;50.478;19.378;2023-09-08T07:56:35;13.60;;;7.70;;
53525;SDS011;40551;50.478;19.378;2023-09-08T07:59:09;13.10;;;7.90;;
53525;SDS011;40551;50.478;19.378;2023-09-08T08:01:41;12.10;;;8.00;;
53525;SDS011;40551;50.478;19.378;2023-09-08T08:04:13;14.70;;;7.60;;
53525;SDS011;40551;50.478;19.378;2023-09-08T08:06:45;11.20;;;7.60;;
53525;SDS011;40551;50.478;19.378;2023-09-08T08:09:18;12.00;;;7.80;;
53525;SDS011;40551;50.478;19.378;2023-09-08T08:11:50;14.00;;;7.30;;
53525;SDS011;40551;50.478;19.378;2023-09-08T08:14:21;11.20;;;7.30;;
53525;SDS011;40551;50.478;19.378;2023-09-08T08:16:53;11.70;;;7.40;;
53525;SDS011;40551;50.478;19.378;2023-09-08T08:19:25;11.30;;;7.10;;
53525;SDS011;40551;50.478;19.378;2023-09-08T08:21:57;21.00;;;7.70;;
53525;SDS011;40551;50.478;19.378;2023-09-08T08:24:29;15.80;;;7.50;;
53525;SDS011;40551;50.478;19.378;2023-09-08T08:27:01;11.20;;;6.80;;
53525;SDS011;40551;50.478;19.378;2023-09-08T08:29:33;11.50;;;6.80;;
53525;SDS011;40551;50.478;19.378;2023-09-08T08:32:05;13.40;;;6.90;;
53525;SDS011;40551;50.478;19.378;2023-09-08T08:34:38;11.40;;;7.10;;
53525;SDS011;40551;50.478;19.378;2023-09-08T08:37:10;11.40;;;6.80;;
53525;SDS011;40551;50.478;19.378;2023-09-08T08:39:42;9.90;;;6.30;;
53525;SDS011;40551;50.478;19.378;2023-09-08T08:42:14;8.50;;;6.60;;
53525;SDS011;40551;50.478;19.378;2023-09-08T08:44:46;10.70;;;6.50;;
53525;SDS011;40551;50.478;19.378;2023-09-08T08:47:19;9.90;;;5.60;;
53525;SDS011;40551;50.478;19.378;2023-09-08T08:49:51;10.30;;;5.90;;
53525;SDS011;40551;50.478;19.378;2023-09-08T08:52:25;11.80;;;6.50;;
53525;SDS011;40551;50.478;19.378;2023-09-08T08:54:57;9.90;;;6.30;;
53525;SDS011;40551;50.478;19.378;2023-09-08T08:57:30;9.10;;;6.40;;
53525;SDS011;40551;50.478;19.378;2023-09-08T09:00:03;14.00;;;6.30;;
53525;SDS011;40551;50.478;19.378;2023-09-08T09:02:40;14.60;;;6.50;;
53525;SDS011;40551;50.478;19.378;2023-09-08T09:05:24;12.50;;;5.80;;
53525;SDS011;40551;50.478;19.378;2023-09-08T09:07:56;12.40;;;5.90;;
53525;SDS011;40551;50.478;19.378;2023-09-08T09:10:32;11.60;;;6.50;;
53525;SDS011;40551;50.478;19.378;2023-09-08T09:13:04;10.90;;;6.10;;
53525;SDS011;40551;50.478;19.378;2023-09-08T09:15:36;11.80;;;6.10;;
53525;SDS011;40551;50.478;19.378;2023-09-08T09:18:08;13.00;;;5.90;;
53525;SDS011;40551;50.478;19.378;2023-09-08T09:20:40;8.20;;;5.20;;
53525;SDS011;40551;50.478;19.378;2023-09-08T09:23:29;9.40;;;5.80;;
53525;SDS011;40551;50.478;19.378;2023-09-08T09:26:02;9.30;;;5.30;;
53525;SDS011;40551;50.478;19.378;2023-09-08T09:28:35;10.40;;;5.50;;
53525;SDS011;40551;50.478;19.378;2023-09-08T09:31:18;10.70;;;5.90;;
53525;SDS011;40551;50.478;19.378;2023-09-08T09:34:04;9.50;;;5.40;;
53525;SDS011;40551;50.478;19.378;2023-09-08T09:36:36;9.40;;;5.70;;
53525;SDS011;40551;50.478;19.378;2023-09-08T09:39:14;8.50;;;5.60;;
53525;SDS011;40551;50.478;19.378;2023-09-08T09:41:48;11.90;;;5.90;;
53525;SDS011;40551;50.478;19.378;2023-09-08T09:44:23;10.90;;;5.70;;
53525;SDS011;40551;50.478;19.378;2023-09-08T09:47:00;9.20;;;5.70;;
53525;SDS011;40551;50.478;19.378;2023-09-08T09:49:32;11.20;;;5.60;;
53525;SDS011;40551;50.478;19.378;2023-09-08T09:52:13;13.30;;;5.70;;
53525;SDS011;40551;50.478;19.378;2023-09-08T09:54:51;11.40;;;6.00;;
53525;SDS011;40551;50.478;19.378;2023-09-08T09:57:25;12.10;;;6.10;;
53525;SDS011;40551;50.478;19.378;2023-09-08T09:59:58;13.00;;;6.00;;
53525;SDS011;40551;50.478;19.378;2023-09-08T10:02:35;12.00;;;5.90;;
53525;SDS011;40551;50.478;19.378;2023-09-08T10:05:11;11.00;;;5.60;;
53525;SDS011;40551;50.478;19.378;2023-09-08T10:07:43;10.10;;;5.70;;
53525;SDS011;40551;50.478;19.378;2023-09-08T10:10:18;9.50;;;5.80;;
53525;SDS011;40551;50.478;19.378;2023-09-08T10:12:52;9.80;;;6.20;;
53525;SDS011;40551;50.478;19.378;2023-09-08T10:15:24;9.10;;;5.70;;
53525;SDS011;40551;50.478;19.378;2023-09-08T10:17:57;10.10;;;5.90;;
53525;SDS011;40551;50.478;19.378;2023-09-08T10:20:29;11.20;;;6.00;;
53525;SDS011;40551;50.478;19.378;2023-09-08T10:23:04;10.30;;;5.70;;
53525;SDS011;40551;50.478;19.378;2023-09-08T10:25:42;8.10;;;5.50;;
53525;SDS011;40551;50.478;19.378;2023-09-08T10:28:22;7.80;;;5.20;;
53525;SDS011;40551;50.478;19.378;2023-09-08T10:30:55;9.30;;;5.80;;
53525;SDS011;40551;50.478;19.378;2023-09-08T10:33:27;8.80;;;6.10;;
53525;SDS011;40551;50.478;19.378;2023-09-08T10:36:00;10.70;;;6.40;;
53525;SDS011;40551;50.478;19.378;2023-09-08T10:38:34;8.40;;;5.70;;
53525;SDS011;40551;50.478;19.378;2023-09-08T10:41:26;9.20;;;5.70;;
53525;SDS011;40551;50.478;19.378;2023-09-08T10:44:07;8.20;;;5.80;;
53525;SDS011;40551;50.478;19.378;2023-09-08T10:46:39;9.40;;;5.80;;
53525;SDS011;40551;50.478;19.378;2023-09-08T10:49:10;8.60;;;5.40;;
53525;SDS011;40551;50.478;19.378;2023-09-08T10:51:42;9.30;;;5.50;;
53525;SDS011;40551;50.478;19.378;2023-09-08T10:57:15;8.30;;;5.60;;
53525;SDS011;40551;50.478;19.378;2023-09-08T10:59:50;9.10;;;6.00;;
53525;SDS011;40551;50.478;19.378;2023-09-08T11:02:34;11.00;;;5.60;;
53525;SDS011;40551;50.478;19.378;2023-09-08T11:05:08;11.10;;;5.60;;
53525;SDS011;40551;50.478;19.378;2023-09-08T11:07:42;8.70;;;5.50;;
53525;SDS011;40551;50.478;19.378;2023-09-08T11:10:15;11.80;;;5.60;;
53525;SDS011;40551;50.478;19.378;2023-09-08T11:12:47;9.40;;;5.70;;
53525;SDS011;40551;50.478;19.378;2023-09-08T11:15:20;10.00;;;5.90;;
53525;SDS011;40551;50.478;19.378;2023-09-08T11:17:53;16.30;;;6.30;;
53525;SDS011;40551;50.478;19.378;2023-09-08T11:20:28;13.30;;;5.80;;
53525;SDS011;40551;50.478;19.378;2023-09-08T11:23:00;8.90;;;5.80;;
53525;SDS011;40551;50.478;19.378;2023-09-08T11:25:33;11.10;;;5.90;;
53525;SDS011;40551;50.478;19.378;2023-09-08T11:28:06;10.20;;;6.10;;
53525;SDS011;40551;50.478;19.378;2023-09-08T11:30:38;9.50;;;6.00;;
53525;SDS011;40551;50.478;19.378;2023-09-08T11:33:14;10.80;;;6.00;;
53525;SDS011;40551;50.478;19.378;2023-09-08T11:35:47;8.40;;;5.70;;
53525;SDS011;40551;50.478;19.378;2023-09-08T11:38:19;10.50;;;5.70;;
53525;SDS011;40551;50.478;19.378;2023-09-08T11:40:54;8.70;;;5.60;;
53525;SDS011;40551;50.478;19.378;2023-09-08T11:43:27;11.00;;;5.40;;
53525;SDS011;40551;50.478;19.378;2023-09-08T11:46:01;9.00;;;5.60;;
53525;SDS011;40551;50.478;19.378;2023-09-08T11:48:34;10.90;;;5.80;;
53525;SDS011;40551;50.478;19.378;2023-09-08T11:51:07;8.80;;;5.90;;
53525;SDS011;40551;50.478;19.378;2023-09-08T11:53:40;9.40;;;5.80;;
53525;SDS011;40551;50.478;19.378;2023-09-08T11:56:12;9.20;;;4.90;;
53525;SDS011;40551;50.478;19.378;2023-09-08T11:58:44;8.50;;;5.40;;
53525;SDS011;40551;50.478;19.378;2023-09-08T12:01:17;9.80;;;5.30;;
53525;SDS011;40551;50.478;19.378;2023-09-08T12:03:53;10.90;;;5.70;;
53525;SDS011;40551;50.478;19.378;2023-09-08T12:06:27;8.70;;;5.30;;
53525;SDS011;40551;50.478;19.378;2023-09-08T12:09:01;12.30;;;5.40;;
53525;SDS011;40551;50.478;19.378;2023-09-08T12:11:34;11.40;;;5.60;;
53525;SDS011;40551;50.478;19.378;2023-09-08T12:14:11;10.50;;;5.50;;
53525;SDS011;40551;50.478;19.378;2023-09-08T12:16:44;9.30;;;5.40;;
53525;SDS011;40551;50.478;19.378;2023-09-08T12:22:02;8.10;;;5.60;;
53525;SDS011;40551;50.478;19.378;2023-09-08T12:27:26;8.50;;;5.40;;
53525;SDS011;40551;50.478;19.378;2023-09-08T12:29:58;7.90;;;4.80;;
53525;SDS011;40551;50.478;19.378;2023-09-08T12:32:33;8.70;;;5.50;;
53525;SDS011;40551;50.478;19.378;2023-09-08T12:35:06;8.30;;;5.60;;
53525;SDS011;40551;50.478;19.378;2023-09-08T12:37:38;14.30;;;5.90;;
53525;SDS011;40551;50.478;19.378;2023-09-08T12:40:11;10.40;;;5.90;;
53525;SDS011;40551;50.478;19.378;2023-09-08T12:42:44;10.10;;;5.80;;
53525;SDS011;40551;50.478;19.378;2023-09-08T12:45:23;10.40;;;5.40;;
53525;SDS011;40551;50.478;19.378;2023-09-08T12:47:57;9.60;;;6.50;;
53525;SDS011;40551;50.478;19.378;2023-09-08T12:50:31;11.50;;;7.00;;
53525;SDS011;40551;50.478;19.378;2023-09-08T12:53:03;11.50;;;6.40;;
53525;SDS011;40551;50.478;19.378;2023-09-08T12:55:35;11.00;;;6.20;;
53525;SDS011;40551;50.478;19.378;2023-09-08T12:58:07;8.50;;;5.80;;
53525;SDS011;40551;50.478;19.378;2023-09-08T13:00:39;9.20;;;5.60;;
53525;SDS011;40551;50.478;19.378;2023-09-08T13:03:11;9.20;;;4.90;;
53525;SDS011;40551;50.478;19.378;2023-09-08T13:05:43;7.90;;;5.30;;
53525;SDS011;40551;50.478;19.378;2023-09-08T13:08:15;9.60;;;5.70;;
53525;SDS011;40551;50.478;19.378;2023-09-08T13:10:47;14.70;;;5.70;;
53525;SDS011;40551;50.478;19.378;2023-09-08T13:13:18;10.70;;;5.60;;
53525;SDS011;40551;50.478;19.378;2023-09-08T13:15:50;9.20;;;5.20;;
53525;SDS011;40551;50.478;19.378;2023-09-08T13:18:22;8.80;;;5.30;;
53525;SDS011;40551;50.478;19.378;2023-09-08T13:20:53;8.90;;;5.30;;
53525;SDS011;40551;50.478;19.378;2023-09-08T13:23:25;9.30;;;5.10;;
53525;SDS011;40551;50.478;19.378;2023-09-08T13:25:57;9.50;;;5.60;;
53525;SDS011;40551;50.478;19.378;2023-09-08T13:28:28;9.00;;;5.30;;
53525;SDS011;40551;50.478;19.378;2023-09-08T13:31:00;9.20;;;4.90;;
53525;SDS011;40551;50.478;19.378;2023-09-08T13:33:32;10.50;;;5.60;;
53525;SDS011;40551;50.478;19.378;2023-09-08T13:36:04;11.30;;;5.90;;
53525;SDS011;40551;50.478;19.378;2023-09-08T13:38:37;11.00;;;5.60;;
53525;SDS011;40551;50.478;19.378;2023-09-08T13:41:08;9.00;;;5.20;;
53525;SDS011;40551;50.478;19.378;2023-09-08T13:43:42;9.30;;;5.60;;
53525;SDS011;40551;50.478;19.378;2023-09-08T13:46:16;9.60;;;5.90;;
53525;SDS011;40551;50.478;19.378;2023-09-08T13:48:48;10.60;;;5.20;;
53525;SDS011;40551;50.478;19.378;2023-09-08T13:51:21;8.90;;;5.70;;
53525;SDS011;40551;50.478;19.378;2023-09-08T13:53:55;8.50;;;5.90;;
53525;SDS011;40551;50.478;19.378;2023-09-08T13:56:30;8.40;;;5.90;;
53525;SDS011;40551;50.478;19.378;2023-09-08T13:59:02;13.30;;;6.20;;
53525;SDS011;40551;50.478;19.378;2023-09-08T14:01:38;10.10;;;5.90;;
53525;SDS011;40551;50.478;19.378;2023-09-08T14:04:27;8.90;;;6.20;;
53525;SDS011;40551;50.478;19.378;2023-09-08T14:07:02;9.00;;;5.50;;
53525;SDS011;40551;50.478;19.378;2023-09-08T14:09:44;9.80;;;5.80;;
53525;SDS011;40551;50.478;19.378;2023-09-08T14:12:19;7.90;;;5.90;;
53525;SDS011;40551;50.478;19.378;2023-09-08T14:14:50;10.00;;;5.70;;
53525;SDS011;40551;50.478;19.378;2023-09-08T14:17:23;9.70;;;5.40;;
53525;SDS011;40551;50.478;19.378;2023-09-08T14:19:54;9.70;;;6.00;;
53525;SDS011;40551;50.478;19.378;2023-09-08T14:22:26;13.30;;;5.70;;
53525;SDS011;40551;50.478;19.378;2023-09-08T14:24:58;9.50;;;5.90;;
53525;SDS011;40551;50.478;19.378;2023-09-08T14:27:30;14.20;;;6.30;;
53525;SDS011;40551;50.478;19.378;2023-09-08T14:30:03;9.30;;;6.20;;
53525;SDS011;40551;50.478;19.378;2023-09-08T14:32:36;9.50;;;6.20;;
53525;SDS011;40551;50.478;19.378;2023-09-08T14:35:09;9.70;;;5.70;;
53525;SDS011;40551;50.478;19.378;2023-09-08T14:37:42;8.80;;;6.00;;
53525;SDS011;40551;50.478;19.378;2023-09-08T14:40:14;8.10;;;5.90;;
53525;SDS011;40551;50.478;19.378;2023-09-08T14:42:46;10.10;;;6.20;;
53525;SDS011;40551;50.478;19.378;2023-09-08T14:45:22;9.80;;;5.90;;
53525;SDS011;40551;50.478;19.378;2023-09-08T14:47:55;8.40;;;5.20;;
53525;SDS011;40551;50.478;19.378;2023-09-08T14:50:30;9.10;;;5.60;;
53525;SDS011;40551;50.478;19.378;2023-09-08T14:53:02;10.50;;;6.10;;
53525;SDS011;40551;50.478;19.378;2023-09-08T14:55:35;9.40;;;5.70;;
53525;SDS011;40551;50.478;19.378;2023-09-08T14:58:11;10.00;;;6.60;;
53525;SDS011;40551;50.478;19.378;2023-09-08T15:00:44;11.20;;;5.90;;
53525;SDS011;40551;50.478;19.378;2023-09-08T15:03:16;8.40;;;6.10;;
53525;SDS011;40551;50.478;19.378;2023-09-08T15:05:48;12.80;;;5.60;;
53525;SDS011;40551;50.478;19.378;2023-09-08T15:08:20;9.60;;;6.00;;
53525;SDS011;40551;50.478;19.378;2023-09-08T15:10:51;8.20;;;5.70;;
53525;SDS011;40551;50.478;19.378;2023-09-08T15:13:23;8.50;;;5.90;;
53525;SDS011;40551;50.478;19.378;2023-09-08T15:15:55;9.00;;;6.00;;
53525;SDS011;40551;50.478;19.378;2023-09-08T15:18:29;10.00;;;5.80;;